Time;durP1;ratioP1;P1;durP2;ratioP2;P2;SDS_P1;SDS_P2;PMS_P1;PMS_P2;Temp;Humidity;BMP_temperature;BMP_pressure;BME280_temperature;BME280_humidity;BME280_pressure;Samples;Min_cycle;Max_cycle;Signal;HPM_P1;HPM_P2
2021/09/29 00:01:08;;;;;;;8.93;4.80;;;;;;;10.33;72.89;100998.19;1701962;82;21503;-60
2021/09/29 00:03:37;;;;;;;13.13;3.92;;;;;;;10.31;72.91;100992.10;1702819;82;27183;-60
2021/09/29 00:06:05;;;;;;;7.80;4.50;;;;;;;10.35;73.27;100992.05;1697242;82;21820;-60
2021/09/29 00:08:31;;;;;;;7.75;3.67;;;;;;;10.46;73.29;100985.66;1703135;82;25815;-59
2021/09/29 00:10:58;;;;;;;7.45;4.47;;;;;;;10.51;73.16;100987.75;1709834;82;21038;-60
2021/09/29 00:13:26;;;;;;;8.20;4.30;;;;;;;10.48;73.09;100987.80;1709861;82;21507;-60
2021/09/29 00:15:54;;;;;;;9.48;4.47;;;;;;;10.46;73.03;100993.55;1705412;82;21559;-60
2021/09/29 00:18:21;;;;;;;9.75;4.33;;;;;;;10.42;73.05;100984.00;1708355;82;21797;-61
2021/09/29 00:20:50;;;;;;;8.70;4.35;;;;;;;10.46;73.13;100989.61;1708929;81;21515;-59
2021/09/29 00:23:17;;;;;;;9.90;4.12;;;;;;;10.54;73.08;100987.27;1703267;82;21510;-60
2021/09/29 00:25:44;;;;;;;11.28;4.85;;;;;;;10.56;72.90;100986.78;1698148;82;21543;-60
2021/09/29 00:28:10;;;;;;;6.15;3.87;;;;;;;10.49;72.81;100988.23;1711250;82;21706;-60
2021/09/29 00:30:49;;;;;;;9.00;3.97;;;;;;;10.44;72.77;100990.09;1701896;82;22021;-60
2021/09/29 00:33:06;;;;;;;6.47;4.37;;;;;;;10.39;72.79;100989.31;1713918;81;20994;-60
2021/09/29 00:35:33;;;;;;;8.35;5.08;;;;;;;10.42;72.91;100989.72;1709592;82;20955;-60
2021/09/29 00:38:01;;;;;;;6.45;3.70;;;;;;;10.48;73.00;100993.06;1698354;82;21523;-61
2021/09/29 00:40:28;;;;;;;6.08;3.98;;;;;;;10.50;72.86;100991.27;1706293;82;21588;-60
2021/09/29 00:42:55;;;;;;;4.85;4.17;;;;;;;10.46;72.87;100986.98;1700031;82;21598;-60
2021/09/29 00:45:21;;;;;;;4.45;3.95;;;;;;;10.43;72.81;100987.03;1706838;82;21513;-60
2021/09/29 00:47:48;;;;;;;6.25;3.98;;;;;;;10.37;72.86;100991.11;1713708;82;21415;-60
2021/09/29 00:50:15;;;;;;;6.10;3.75;;;;;;;10.40;73.15;100987.58;1709406;82;21514;-60
2021/09/29 00:52:41;;;;;;;9.95;3.62;;;;;;;10.48;73.12;100990.44;1709142;81;21065;-61
2021/09/29 00:55:13;;;;;;;5.83;4.10;;;;;;;10.51;73.05;100987.75;1708356;82;21795;-60
2021/09/29 00:57:41;;;;;;;6.17;3.92;;;;;;;10.47;72.98;100997.92;1708370;82;21459;-61
2021/09/29 01:00:09;;;;;;;11.90;4.50;;;;;;;10.44;72.88;100996.66;1698336;82;21082;-62
2021/09/29 01:02:36;;;;;;;5.30;3.90;;;;;;;10.36;72.90;100997.70;1700111;81;21547;-60
2021/09/29 01:05:05;;;;;;;6.35;4.03;;;;;;;10.39;73.22;100997.66;1692352;82;21593;-60
2021/09/29 01:07:46;;;;;;;6.90;3.52;;;;;;;10.47;73.14;101004.50;1637855;85;21745;-60
2021/09/29 01:10:38;;;;;;;6.62;3.67;;;;;;;10.47;72.98;101001.88;1666298;84;21596;-60
2021/09/29 01:13:25;;;;;;;6.30;3.87;;;;;;;10.42;72.82;101006.81;1679956;84;21581;-60
2021/09/29 01:15:57;;;;;;;6.08;3.83;;;;;;;10.36;72.73;101009.53;1672523;84;21539;-60
2021/09/29 01:18:24;;;;;;;8.00;3.75;;;;;;;10.31;72.70;101013.59;1663207;83;21519;-60
2021/09/29 01:21:03;;;;;;;6.33;3.65;;;;;;;10.31;73.09;101007.02;1667264;84;22081;-60
2021/09/29 01:24:22;;;;;;;5.22;3.55;;;;;;;10.41;73.16;101007.69;1642681;84;21602;-60
2021/09/29 01:26:48;;;;;;;7.33;3.75;;;;;;;10.40;72.99;101017.34;1669392;84;21641;-59
2021/09/29 01:29:18;;;;;;;7.95;4.12;;;;;;;10.31;72.95;101018.39;1669157;84;21580;-59
2021/09/29 01:31:45;;;;;;;11.40;4.20;;;;;;;10.26;72.94;101020.20;1646434;84;21606;-59
2021/09/29 01:34:13;;;;;;;7.90;3.37;;;;;;;10.21;73.06;101017.24;1668175;84;21999;-59
2021/09/29 01:36:40;;;;;;;;;;;;;;;10.23;73.31;101018.97;1666211;84;21523;-59
2021/09/29 01:39:08;;;;;;;5.57;3.50;;;;;;;10.33;73.37;101015.73;1659719;84;20499;-59
2021/09/29 01:41:38;;;;;;;8.45;3.70;;;;;;;10.32;73.15;101020.56;1669675;83;21536;-59
2021/09/29 01:44:05;;;;;;;9.65;4.20;;;;;;;10.25;73.02;101017.63;1710076;82;21561;-60
2021/09/29 01:46:32;;;;;;;4.62;4.12;;;;;;;10.18;73.10;101023.89;1724975;82;21849;-59
2021/09/29 01:49:28;;;;;;;3.65;3.35;;;;;;;10.12;73.22;101029.67;1718232;82;20942;-59
2021/09/29 01:51:56;;;;;;;5.50;3.08;;;;;;;10.14;73.51;101027.88;1706634;82;21525;-60
2021/09/29 01:54:25;;;;;;;6.90;3.40;;;;;;;10.23;73.46;101018.97;1722492;82;21023;-59
2021/09/29 01:58:46;;;;;;;6.85;3.67;;;;;;;10.23;73.47;101024.22;1768451;79;23179;-60
2021/09/29 02:01:12;;;;;;;14.75;3.60;;;;;;;10.16;73.31;101023.92;1728921;80;21436;-60
2021/09/29 02:03:45;;;;;;;3.02;2.75;;;;;;;10.13;73.20;101026.17;1741400;80;21803;-60
2021/09/29 02:06:13;;;;;;;4.53;3.27;;;;;;;10.14;73.55;101028.34;1726368;81;21514;-60
2021/09/29 02:08:39;;;;;;;;;;;;;;;10.24;73.52;101026.39;1747037;80;21037;-60
2021/09/29 02:11:06;;;;;;;3.77;3.25;;;;;;;10.24;73.44;101027.25;1738235;80;20139;-60
2021/09/29 02:13:33;;;;;;;4.08;3.58;;;;;;;10.19;73.28;101022.98;1731097;80;21586;-60
2021/09/29 02:16:00;;;;;;;5.35;3.40;;;;;;;10.16;73.20;101027.00;1707733;83;22146;-61
2021/09/29 02:18:27;;;;;;;4.62;3.35;;;;;;;10.09;73.23;101032.80;1709106;81;21510;-60
2021/09/29 02:20:54;;;;;;;4.40;3.12;;;;;;;10.11;73.49;101032.33;1707168;81;21552;-60
2021/09/29 02:23:21;;;;;;;4.80;3.90;;;;;;;10.20;73.62;101024.73;1687571;81;21572;-60
2021/09/29 02:25:48;;;;;;;4.58;3.27;;;;;;;10.22;73.34;101040.02;1687516;81;21559;-60
2021/09/29 02:28:15;;;;;;;6.87;3.65;;;;;;;10.18;73.30;101039.66;1705471;83;21776;-60
2021/09/29 02:30:42;;;;;;;5.40;3.50;;;;;;;10.14;73.26;101043.66;1700560;81;21167;-61
2021/09/29 02:33:09;;;;;;;4.00;3.50;;;;;;;10.13;73.17;101047.19;1690924;82;28628;-60
2021/09/29 02:35:37;;;;;;;5.33;3.40;;;;;;;10.17;73.39;101048.43;1696109;83;21493;-60
2021/09/29 02:38:04;;;;;;;8.05;3.40;;;;;;;10.26;73.40;101049.57;1707690;83;21639;-60
2021/09/29 02:40:31;;;;;;;4.03;3.52;;;;;;;10.25;73.22;101053.11;1704726;81;21833;-60
2021/09/29 02:42:58;;;;;;;6.50;3.70;;;;;;;10.20;73.16;101052.33;1700209;83;21600;-60
2021/09/29 02:45:24;;;;;;;4.03;3.72;;;;;;;10.14;73.11;101062.05;1687326;83;21701;-60
2021/09/29 02:47:51;;;;;;;4.60;3.70;;;;;;;10.09;73.00;101058.62;1707350;83;21513;-60
2021/09/29 02:50:19;;;;;;;7.03;3.33;;;;;;;10.02;72.97;101064.03;1699955;81;21645;-60
2021/09/29 02:52:46;;;;;;;5.47;3.62;;;;;;;10.03;73.20;101066.63;1704613;83;21729;-64
2021/09/29 02:55:13;;;;;;;4.00;3.10;;;;;;;10.10;73.22;101068.27;1686317;83;20970;-60
2021/09/29 02:57:40;;;;;;;3.70;3.40;;;;;;;10.11;72.99;101066.48;1696868;83;21528;-60
2021/09/29 03:00:08;;;;;;;5.60;4.00;;;;;;;10.06;72.99;101066.59;1705946;82;21487;-60
2021/09/29 03:02:37;;;;;;;3.90;3.50;;;;;;;10.01;72.92;101071.51;1701581;82;21399;-60
2021/09/29 03:05:04;;;;;;;6.75;3.50;;;;;;;9.96;72.91;101074.20;1693816;83;22141;-60
2021/09/29 03:07:31;;;;;;;3.77;3.22;;;;;;;9.99;73.04;101074.16;1691964;83;21569;-60
2021/09/29 03:09:58;;;;;;;3.75;3.10;;;;;;;10.05;72.93;101077.13;1692481;83;21033;-60
2021/09/29 03:12:24;;;;;;;5.97;3.20;;;;;;;10.03;72.76;101076.28;1703749;82;21597;-60
2021/09/29 03:14:51;;;;;;;9.73;3.40;;;;;;;9.96;72.70;101081.22;1693631;82;21568;-60
2021/09/29 03:17:18;;;;;;;5.37;2.87;;;;;;;9.92;72.59;101074.70;1698435;83;21804;-60
2021/09/29 03:19:46;;;;;;;3.75;3.45;;;;;;;9.88;72.52;101077.41;1699100;82;21507;-60
2021/09/29 03:22:13;;;;;;;3.95;2.85;;;;;;;9.83;72.47;101068.73;1707453;82;28769;-60
2021/09/29 03:24:40;;;;;;;2.87;2.67;;;;;;;9.82;72.70;101074.90;1697565;83;21017;-59
2021/09/29 03:27:07;;;;;;;4.10;3.20;;;;;;;9.88;72.81;101070.84;1710877;82;21518;-59
2021/09/29 03:29:34;;;;;;;3.50;3.08;;;;;;;9.89;72.76;101068.66;1690557;83;21825;-59
2021/09/29 03:32:01;;;;;;;2.52;2.37;;;;;;;9.82;72.73;101077.08;1698092;83;21541;-59
2021/09/29 03:34:28;;;;;;;3.80;2.70;;;;;;;9.78;72.70;101084.59;1697259;82;21513;-60
2021/09/29 03:36:55;;;;;;;3.87;2.87;;;;;;;9.71;72.67;101081.18;1689120;83;21649;-59
2021/09/29 03:39:21;;;;;;;2.83;2.62;;;;;;;9.65;72.63;101085.23;1685848;83;21559;-59
2021/09/29 03:41:49;;;;;;;3.13;2.37;;;;;;;9.68;72.97;101093.07;1693461;83;21845;-59
2021/09/29 03:44:16;;;;;;;2.70;2.50;;;;;;;9.77;73.01;101089.86;1703240;82;21470;-59
2021/09/29 03:46:42;;;;;;;3.25;2.77;;;;;;;9.75;72.93;101089.42;1703007;83;20985;-59
2021/09/29 03:49:09;;;;;;;4.50;2.80;;;;;;;9.73;72.87;101092.52;1693675;82;21850;-59
2021/09/29 03:51:36;;;;;;;3.15;2.62;;;;;;;9.69;72.79;101095.24;1703920;83;21504;-59
2021/09/29 03:54:02;;;;;;;2.60;2.40;;;;;;;9.63;72.72;101088.33;1699945;82;22127;-60
2021/09/29 03:56:30;;;;;;;5.00;2.62;;;;;;;9.58;72.68;101094.09;1698407;82;21495;-59
2021/09/29 03:58:56;;;;;;;2.80;2.47;;;;;;;9.55;72.79;101091.08;1692603;83;21472;-59
2021/09/29 04:01:23;;;;;;;3.60;2.60;;;;;;;9.63;72.98;101096.20;1720148;82;21536;-59
2021/09/29 04:03:50;;;;;;;5.42;2.50;;;;;;;9.63;72.85;101096.20;1715471;81;21499;-59
2021/09/29 04:06:17;;;;;;;3.00;2.52;;;;;;;9.57;72.85;101097.63;1715466;81;22052;-60
2021/09/29 04:08:44;;;;;;;3.10;2.45;;;;;;;9.54;72.82;101100.28;1719447;81;21638;-60
2021/09/29 04:11:11;;;;;;;2.65;2.42;;;;;;;9.54;72.79;101105.53;1715727;82;21522;-60
2021/09/29 04:13:38;;;;;;;2.37;1.80;;;;;;;9.49;72.61;101100.79;1719272;81;21506;-60
2021/09/29 04:16:06;;;;;;;3.42;2.50;;;;;;;9.49;72.84;101106.94;1725634;82;21590;-61
2021/09/29 04:18:33;;;;;;;4.70;2.12;;;;;;;9.59;73.03;101108.97;1719847;80;21424;-60
2021/09/29 04:21:00;;;;;;;4.33;2.62;;;;;;;9.62;72.75;101111.98;1726094;81;21554;-60
2021/09/29 04:23:26;;;;;;;3.37;2.60;;;;;;;9.57;72.66;101112.06;1728909;81;21513;-60
2021/09/29 04:25:55;;;;;;;2.60;2.40;;;;;;;9.53;72.60;101112.98;1722483;82;21499;-60
2021/09/29 04:28:21;;;;;;;2.60;2.40;;;;;;;9.46;72.58;101116.16;1728079;81;21086;-60
2021/09/29 04:30:49;;;;;;;2.25;2.05;;;;;;;9.42;72.50;101118.83;1682470;84;22132;-60
2021/09/29 04:33:16;;;;;;;3.25;2.10;;;;;;;9.41;72.73;101117.11;1716352;82;21419;-60
2021/09/29 04:35:42;;;;;;;2.52;2.30;;;;;;;9.52;72.74;101124.39;1683005;82;21542;-60
2021/09/29 04:38:09;;;;;;;4.15;2.30;;;;;;;9.55;72.49;101116.48;1676525;82;21604;-60
2021/09/29 04:40:36;;;;;;;4.53;2.30;;;;;;;9.49;72.49;101124.00;1721323;81;21617;-60
2021/09/29 04:43:03;;;;;;;2.17;2.00;;;;;;;9.42;72.50;101123.66;1713826;81;21518;-61
2021/09/29 04:45:29;;;;;;;3.83;2.67;;;;;;;9.39;72.40;101125.45;1720624;81;21488;-60
2021/09/29 04:47:56;;;;;;;3.98;2.30;;;;;;;9.37;72.34;101131.18;1721990;81;21555;-60
2021/09/29 04:50:23;;;;;;;5.58;2.35;;;;;;;9.35;72.54;101126.80;1724245;80;21595;-61
2021/09/29 04:52:49;;;;;;;3.17;2.15;;;;;;;9.46;72.71;101134.53;1684668;82;21490;-60
2021/09/29 04:55:16;;;;;;;2.22;2.02;;;;;;;9.49;72.41;101127.94;1715935;82;22094;-60
2021/09/29 04:57:43;;;;;;;3.22;2.37;;;;;;;9.44;72.37;101131.06;1720147;81;21582;-60
2021/09/29 05:00:11;;;;;;;2.95;2.75;;;;;;;9.42;72.25;101134.16;1712067;81;21089;-60
2021/09/29 05:02:38;;;;;;;;;;;;;;;9.39;72.14;101139.45;1721598;82;21510;-60
2021/09/29 05:05:06;;;;;;;4.33;2.62;;;;;;;9.33;72.23;101139.53;1714469;81;20443;-60
2021/09/29 05:07:32;;;;;;;;;;;;;;;9.30;72.06;101148.30;1714836;81;21750;-60
2021/09/29 05:09:59;;;;;;;2.58;2.15;;;;;;;9.30;72.39;101153.55;1711129;82;20220;-61
2021/09/29 05:12:31;;;;;;;4.07;2.13;;;;;;;9.41;72.28;101150.79;1715838;81;20979;-61
2021/09/29 05:14:58;;;;;;;3.55;2.47;;;;;;;9.45;71.99;101152.47;1682483;84;21559;-61
2021/09/29 05:17:26;;;;;;;4.62;2.42;;;;;;;9.41;71.85;101157.35;1702172;82;21530;-61
2021/09/29 05:19:53;;;;;;;3.93;2.80;;;;;;;9.35;71.78;101154.36;1687596;82;21825;-59
2021/09/29 05:22:19;;;;;;;3.22;2.92;;;;;;;9.32;71.69;101157.05;1725826;82;21671;-59
2021/09/29 05:24:46;;;;;;;3.27;2.98;;;;;;;9.28;71.72;101159.27;1719778;81;21435;-58
2021/09/29 05:27:13;;;;;;;3.55;3.25;;;;;;;9.30;71.92;101159.25;1718527;82;21531;-59
2021/09/29 05:29:44;;;;;;;3.00;2.80;;;;;;;9.38;71.95;101156.52;1719489;81;21567;-60
2021/09/29 05:32:11;;;;;;;4.53;3.05;;;;;;;9.40;71.79;101157.36;1718936;81;21939;-60
2021/09/29 05:34:38;;;;;;;2.87;2.67;;;;;;;9.35;71.69;101167.94;1717853;81;21558;-60
2021/09/29 05:37:05;;;;;;;5.20;2.80;;;;;;;9.33;71.66;101165.34;1685306;82;21487;-58
2021/09/29 05:39:32;;;;;;;4.33;3.93;;;;;;;9.31;71.64;101168.42;1689961;84;21543;-63
2021/09/29 05:41:59;;;;;;;3.00;2.80;;;;;;;9.31;71.51;101172.36;1681308;82;21735;-63
2021/09/29 05:44:28;;;;;;;3.08;2.70;;;;;;;9.33;71.76;101174.97;1688310;82;22105;-63
2021/09/29 05:46:54;;;;;;;5.70;3.10;;;;;;;9.44;71.74;101168.27;1727011;80;21483;-62
2021/09/29 05:49:21;;;;;;;4.77;3.30;;;;;;;9.49;71.63;101177.83;1726645;80;21614;-63
2021/09/29 05:51:48;;;;;;;5.40;3.30;;;;;;;9.45;71.33;101172.63;1719317;80;21490;-61
2021/09/29 05:54:15;;;;;;;3.65;3.35;;;;;;;9.41;71.17;101169.16;1729318;80;21457;-62
2021/09/29 05:56:42;;;;;;;5.72;3.45;;;;;;;9.40;71.08;101174.43;1732716;80;22002;-62
2021/09/29 05:59:09;;;;;;;2.98;2.72;;;;;;;9.40;71.03;101174.43;1729268;81;21526;-62
2021/09/29 06:01:37;;;;;;;3.37;2.65;;;;;;;9.43;71.34;101173.95;1735939;80;21626;-65
2021/09/29 06:04:04;;;;;;;3.83;3.12;;;;;;;9.60;71.41;101178.10;1724792;80;21542;-65
2021/09/29 06:06:31;;;;;;;2.80;2.60;;;;;;;9.65;70.97;101178.46;1734695;80;21491;-66
2021/09/29 06:08:58;;;;;;;4.50;3.20;;;;;;;9.65;70.96;101183.71;1718164;81;22055;-64
2021/09/29 06:11:25;;;;;;;4.55;3.20;;;;;;;9.64;70.67;101178.02;1733205;80;21546;-66
2021/09/29 06:13:51;;;;;;;3.25;2.95;;;;;;;9.63;70.52;101174.98;1724313;80;21447;-65
2021/09/29 06:16:20;;;;;;;3.33;3.12;;;;;;;9.63;70.41;101183.33;1740695;80;21449;-64
2021/09/29 06:18:48;;;;;;;5.33;2.97;;;;;;;9.64;70.39;101174.53;1730374;80;21562;-66
2021/09/29 06:21:17;;;;;;;3.55;3.25;;;;;;;9.68;70.66;101180.16;1739879;80;21812;-66
2021/09/29 06:23:44;;;;;;;4.28;3.08;;;;;;;9.80;70.50;101179.99;1735193;80;21762;-64
2021/09/29 06:26:11;;;;;;;6.87;3.53;;;;;;;9.85;70.36;101182.11;1723165;81;21530;-63
2021/09/29 06:28:38;;;;;;;3.30;3.00;;;;;;;9.87;70.23;101181.64;1734990;80;21510;-63
2021/09/29 06:31:08;;;;;;;2.77;2.55;;;;;;;9.89;69.91;101182.94;1728910;80;21434;-64
2021/09/29 06:33:36;;;;;;;7.20;3.55;;;;;;;9.90;69.73;101183.34;1734952;80;21479;-66
2021/09/29 06:36:04;;;;;;;;;;;;;;;9.93;69.67;101191.19;1739025;80;21480;-65
2021/09/29 06:38:31;;;;;;;4.00;3.62;;;;;;;9.93;69.42;101185.94;1732569;80;20425;-65
2021/09/29 06:40:58;;;;;;;4.78;3.58;;;;;;;9.89;69.36;101194.77;1738929;80;21687;-64
2021/09/29 06:43:25;;;;;;;4.90;3.50;;;;;;;9.94;69.57;101185.02;1738296;80;21085;-67
2021/09/29 06:45:53;;;;;;;3.58;3.33;;;;;;;10.08;69.50;101189.63;1735928;80;21790;-65
2021/09/29 06:48:20;;;;;;;4.25;3.92;;;;;;;10.14;69.22;101191.29;1733200;80;21685;-68
2021/09/29 06:50:47;;;;;;;5.92;3.90;;;;;;;10.18;69.04;101191.66;1698397;82;21025;-65
2021/09/29 06:53:19;;;;;;;3.72;3.42;;;;;;;10.21;68.90;101192.04;1707005;82;21629;-66
2021/09/29 06:55:48;;;;;;;5.80;3.70;;;;;;;10.23;68.71;101194.22;1684484;82;21643;-64
2021/09/29 06:58:15;;;;;;;3.98;3.62;;;;;;;10.21;68.53;101194.25;1714018;82;22064;-67
2021/09/29 07:00:42;;;;;;;5.40;3.92;;;;;;;10.23;68.65;101194.22;1688141;83;20993;-66
2021/09/29 07:03:10;;;;;;;3.90;3.60;;;;;;;10.26;68.68;101202.89;1686692;82;21511;-66
2021/09/29 07:05:37;;;;;;;3.67;3.33;;;;;;;10.35;68.91;101199.30;1684564;83;21519;-63
2021/09/29 07:08:06;;;;;;;4.75;4.25;;;;;;;10.50;68.85;101199.02;1612619;81;21506;-65
2021/09/29 07:10:33;;;;;;;7.17;4.00;;;;;;;10.58;68.43;101201.97;1701087;82;21831;-65
2021/09/29 07:13:00;;;;;;;4.30;3.67;;;;;;;10.59;68.29;101201.95;1700693;82;21497;-67
2021/09/29 07:15:27;;;;;;;4.23;3.83;;;;;;;10.62;68.10;101205.81;1678044;82;21562;-66
2021/09/29 07:18:00;;;;;;;4.45;4.12;;;;;;;10.65;67.89;101201.83;1683658;83;21764;-63
2021/09/29 07:20:28;;;;;;;4.20;3.70;;;;;;;10.70;67.62;101201.75;1685610;83;21815;-70
2021/09/29 07:22:57;;;;;;;4.10;3.80;;;;;;;10.71;67.49;101201.70;1686810;83;21954;-63
2021/09/29 07:25:27;;;;;;;4.80;4.40;;;;;;;10.75;67.27;101202.52;1687109;82;21749;-63
2021/09/29 07:27:53;;;;;;;4.70;4.30;;;;;;;10.77;67.28;101199.86;1684029;83;21530;-64
2021/09/29 07:30:20;;;;;;;4.47;4.08;;;;;;;10.84;67.52;101200.17;1698996;82;21540;-65
2021/09/29 07:32:47;;;;;;;4.60;4.20;;;;;;;11.01;67.42;101207.73;1709829;82;21415;-65
2021/09/29 07:35:14;;;;;;;6.60;4.33;;;;;;;11.11;67.09;101200.06;1702038;83;21767;-65
2021/09/29 07:37:41;;;;;;;6.97;4.22;;;;;;;11.15;66.60;101200.45;1687677;83;21489;-64
2021/09/29 07:40:08;;;;;;;4.22;3.83;;;;;;;11.20;66.23;101195.07;1700447;82;21431;-66
2021/09/29 07:42:37;;;;;;;4.40;3.83;;;;;;;11.27;65.94;101196.22;1695307;83;21554;-66
2021/09/29 07:45:05;;;;;;;3.98;3.70;;;;;;;11.36;65.54;101191.23;1692669;83;21681;-66
2021/09/29 07:47:32;;;;;;;3.95;3.55;;;;;;;11.47;65.49;101194.92;1689540;82;21444;-66
2021/09/29 07:49:59;;;;;;;5.83;3.60;;;;;;;11.53;65.02;101193.49;1683611;83;21443;-65
2021/09/29 07:52:26;;;;;;;3.67;3.35;;;;;;;11.61;64.95;101194.17;1693577;82;21605;-67
2021/09/29 07:54:53;;;;;;;3.60;3.30;;;;;;;11.65;64.70;101198.47;1697481;82;21641;-65
2021/09/29 07:57:21;;;;;;;4.20;3.80;;;;;;;11.71;64.66;101201.88;1708740;82;21518;-66
2021/09/29 07:59:48;;;;;;;4.58;3.10;;;;;;;11.74;64.53;101203.14;1710817;82;21790;-64
2021/09/29 08:02:15;;;;;;;8.63;3.42;;;;;;;11.78;64.20;101196.89;1705449;82;21404;-63
2021/09/29 08:04:42;;;;;;;3.55;3.02;;;;;;;11.78;63.85;101198.20;1707860;82;21523;-64
2021/09/29 08:07:12;;;;;;;3.20;2.90;;;;;;;11.77;63.48;101199.09;1686946;82;21522;-65
2021/09/29 08:09:40;;;;;;;4.28;3.22;;;;;;;11.76;63.25;101196.92;1736963;80;21499;-65
2021/09/29 08:12:09;;;;;;;3.47;2.25;;;;;;;11.83;62.96;101195.02;1689934;82;21588;-65
2021/09/29 08:14:39;;;;;;;2.50;2.30;;;;;;;11.93;62.51;101199.66;1735452;80;20951;-64
2021/09/29 08:17:05;;;;;;;3.02;2.80;;;;;;;12.03;62.29;101195.42;1720219;80;21519;-63
2021/09/29 08:19:34;;;;;;;4.50;2.50;;;;;;;12.18;62.07;101198.14;1723124;80;21490;-64
2021/09/29 08:22:04;;;;;;;3.05;2.45;;;;;;;12.32;61.02;101191.65;1688805;82;21605;-65
2021/09/29 08:27:15;;;;;;;4.25;2.50;;;;;;;12.53;60.11;101191.58;1729397;80;21424;-63
2021/09/29 08:32:25;;;;;;;2.70;2.50;;;;;;;12.76;58.90;101191.81;1689898;82;21617;-64
2021/09/29 08:40:13;;;;;;;2.10;1.65;;;;;;;12.95;56.96;101185.56;1716926;80;21538;-63
2021/09/29 08:42:57;;;;;;;3.47;2.15;;;;;;;13.02;56.56;101189.77;1720312;80;21451;-62
2021/09/29 08:45:30;;;;;;;2.30;2.10;;;;;;;13.07;56.10;101188.30;1692481;82;21458;-63
2021/09/29 08:47:58;;;;;;;1.65;1.55;;;;;;;13.08;55.26;101182.59;1657037;82;21517;-64
2021/09/29 08:53:32;;;;;;;3.08;1.62;;;;;;;13.06;54.88;101186.59;1675681;83;21490;-63
2021/09/29 09:15:32;;;;;;;2.42;1.50;;;;;;;13.46;52.72;101178.84;1727468;80;22045;-63
2021/09/29 09:17:39;;;;;;;1.77;1.52;;;;;;;13.56;51.62;101176.77;1717975;80;21779;-63
2021/09/29 09:20:25;;;;;;;1.95;1.60;;;;;;;13.56;51.57;101175.02;1721814;80;21507;-63
2021/09/29 09:22:54;;;;;;;2.08;1.62;;;;;;;13.54;51.36;101177.28;1730692;80;21002;-62
2021/09/29 09:25:38;;;;;;;1.62;1.52;;;;;;;13.48;51.17;101175.69;1735519;80;21471;-64
2021/09/29 09:28:08;;;;;;;1.70;1.50;;;;;;;13.50;51.40;101171.69;1727786;80;21542;-64
2021/09/29 09:30:37;;;;;;;1.50;1.27;;;;;;;13.50;51.46;101179.14;1680201;83;21824;-64
2021/09/29 09:33:04;;;;;;;3.05;1.40;;;;;;;13.58;51.38;101178.91;1691626;82;21505;-64
2021/09/29 09:35:46;;;;;;;1.55;1.30;;;;;;;13.67;51.14;101185.70;1717447;80;21530;-63
2021/09/29 09:38:21;;;;;;;2.10;1.57;;;;;;;13.62;50.94;101175.28;1724284;80;21495;-64
2021/09/29 09:40:57;;;;;;;2.42;1.17;;;;;;;13.59;50.99;101180.66;1732492;82;21483;-62
2021/09/29 09:43:28;;;;;;;1.85;1.37;;;;;;;13.58;51.14;101178.91;1714334;82;21562;-62
2021/09/29 09:45:56;;;;;;;1.90;1.60;;;;;;;13.61;50.92;101178.36;1689177;82;20993;-64
2021/09/29 09:48:26;;;;;;;2.17;1.60;;;;;;;13.60;51.06;101187.22;1736478;80;21563;-64
2021/09/29 09:51:11;;;;;;;1.40;1.30;;;;;;;13.55;50.87;101179.87;1731190;80;21507;-65
2021/09/29 09:53:38;;;;;;;1.27;1.17;;;;;;;13.47;50.66;101175.30;1728970;80;21519;-64
2021/09/29 09:56:20;;;;;;;1.60;1.27;;;;;;;13.48;50.81;101173.52;1705490;80;22147;-65
2021/09/29 09:58:49;;;;;;;1.60;1.50;;;;;;;13.53;51.11;101177.74;1726052;80;21509;-62
2021/09/29 10:01:17;;;;;;;1.45;1.35;;;;;;;13.60;50.86;101183.25;1720238;80;21502;-62
2021/09/29 10:03:47;;;;;;;2.45;1.70;;;;;;;13.63;50.82;101186.25;1722314;81;21522;-63
2021/09/29 10:06:14;;;;;;;1.80;1.70;;;;;;;13.67;50.47;101185.70;1716538;80;22183;-63
2021/09/29 10:08:44;;;;;;;1.72;1.62;;;;;;;13.60;50.09;101188.54;1717002;81;21780;-64
2021/09/29 10:11:16;;;;;;;2.35;1.65;;;;;;;13.56;50.07;101185.59;1731772;81;21546;-63
2021/09/29 10:27:56;;;;;;;2.45;1.52;;;;;;;13.37;50.33;101180.00;1726605;82;21476;-64
2021/09/29 10:30:34;;;;;;;4.78;1.90;;;;;;;13.36;50.64;101180.04;1717123;81;21585;-62
2021/09/29 10:33:01;;;;;;;2.25;2.12;;;;;;;13.39;50.80;101180.81;1713078;81;21688;-61
2021/09/29 10:35:35;;;;;;;2.47;2.27;;;;;;;13.40;50.61;101187.81;1714007;81;21811;-62
2021/09/29 10:43:42;;;;;;;4.35;2.35;;;;;;;13.34;50.94;101182.72;1715241;80;21018;-63
2021/09/29 10:51:45;;;;;;;2.52;2.37;;;;;;;13.41;51.03;101164.46;1696079;82;21594;-62
2021/09/29 11:07:31;;;;;;;5.35;3.33;;;;;;;13.53;50.74;101164.53;1732720;80;21621;-63
2021/09/29 11:10:20;;;;;;;6.22;3.87;;;;;;;13.51;50.98;101159.75;1723532;81;21065;-64
2021/09/29 11:31:56;;;;;;;4.90;2.80;;;;;;;13.17;52.53;101151.49;1729860;80;21407;-65
2021/09/29 11:34:22;;;;;;;3.12;2.85;;;;;;;13.21;52.84;101155.77;1732889;80;21566;-62
2021/09/29 11:37:11;;;;;;;3.60;3.30;;;;;;;13.31;52.61;101151.56;1733214;81;21085;-62
2021/09/29 12:07:57;;;;;;;5.87;3.77;;;;;;;13.66;51.66;101140.38;1685738;82;21047;-64
2021/09/29 12:09:54;;;;;;;5.45;4.95;;;;;;;13.92;52.51;101137.75;1671268;84;22155;-64
2021/09/29 12:12:28;;;;;;;5.92;4.42;;;;;;;14.05;52.19;101138.65;1669145;85;21596;-65
2021/09/29 12:15:03;;;;;;;5.17;4.28;;;;;;;14.11;52.47;101142.40;1667717;84;21421;-63
2021/09/29 12:17:34;;;;;;;4.42;4.12;;;;;;;14.15;52.44;101146.70;1662102;84;21586;-63
2021/09/29 12:20:13;;;;;;;4.70;4.20;;;;;;;14.10;52.34;101149.48;1666371;84;21004;-62
2021/09/29 12:22:49;;;;;;;;;;;;;;;13.99;52.58;101149.86;1673207;84;21764;-63
2021/09/29 12:25:33;;;;;;;7.30;5.03;;;;;;;13.95;52.63;101147.35;1668033;84;20515;-61
2021/09/29 12:30:55;;;;;;;5.05;4.55;;;;;;;13.77;52.76;101152.80;1665239;84;21497;-61
2021/09/29 12:35:54;;;;;;;6.20;5.25;;;;;;;13.60;52.89;101154.19;1635400;86;21825;-65
2021/09/29 12:38:34;;;;;;;4.90;4.50;;;;;;;13.51;52.93;101151.83;1611780;87;21499;-65
2021/09/29 12:41:01;;;;;;;6.28;4.80;;;;;;;13.42;53.14;101150.32;1632921;86;21604;-65
2021/09/29 12:43:28;;;;;;;6.92;5.70;;;;;;;13.37;53.20;101147.41;1635007;86;21574;-65
2021/09/29 12:45:56;;;;;;;5.37;4.67;;;;;;;13.29;53.47;101142.33;1609691;87;21538;-64
2021/09/29 12:48:24;;;;;;;5.40;4.90;;;;;;;13.28;53.61;101146.33;1625961;86;22150;-65
2021/09/29 12:50:58;;;;;;;5.92;5.00;;;;;;;13.21;53.84;101149.16;1634313;86;21025;-66
2021/09/29 12:55:58;;;;;;;7.97;4.97;;;;;;;13.12;54.38;101144.16;1619853;86;21584;-65
2021/09/29 12:58:23;;;;;;;4.85;4.45;;;;;;;13.07;54.46;101146.52;1626685;86;21553;-67
2021/09/29 13:00:50;;;;;;;5.37;4.85;;;;;;;13.00;54.76;101150.66;1649403;84;21858;-70
2021/09/29 13:03:18;;;;;;;5.53;5.03;;;;;;;12.97;55.02;101150.74;1662195;85;20972;-64
2021/09/29 13:05:47;;;;;;;8.50;5.05;;;;;;;12.96;55.13;101152.98;1658999;84;21520;-67
2021/09/29 13:08:16;;;;;;;5.12;4.62;;;;;;;12.96;55.28;101149.45;1662112;84;21576;-67
2021/09/29 13:10:43;;;;;;;5.05;4.65;;;;;;;12.93;55.63;101146.93;1660384;85;21484;-65
2021/09/29 13:13:11;;;;;;;5.92;4.62;;;;;;;12.88;55.62;101140.45;1656230;84;22109;-66
2021/09/29 13:15:42;;;;;;;;;;;;;;;12.88;55.74;101141.77;1628671;86;21522;-67
2021/09/29 13:18:14;;;;;;;6.42;5.00;;;;;;;12.88;55.54;101140.91;1657465;84;20482;-67
2021/09/29 13:20:39;;;;;;;5.37;4.85;;;;;;;12.87;55.49;101147.97;1661578;84;21493;-67
2021/09/29 13:23:25;;;;;;;5.47;4.92;;;;;;;12.88;55.43;101151.00;1661719;84;21612;-66
2021/09/29 13:36:38;;;;;;;7.80;4.83;;;;;;;12.78;55.74;101141.63;1627510;86;21568;-65
2021/09/29 13:39:17;;;;;;;5.17;4.67;;;;;;;12.74;55.84;101139.52;1631190;86;21792;-67
2021/09/29 13:41:48;;;;;;;5.60;4.90;;;;;;;12.70;56.02;101142.30;1638603;85;21012;-66
2021/09/29 13:44:15;;;;;;;4.50;4.10;;;;;;;12.66;56.11;101139.74;1662397;84;21540;-66
2021/09/29 13:46:44;;;;;;;6.90;4.87;;;;;;;12.62;56.38;101140.73;1662379;84;21519;-63
2021/09/29 13:49:12;;;;;;;11.73;4.97;;;;;;;12.60;56.80;101141.23;1662192;84;21489;-66
2021/09/29 13:51:45;;;;;;;6.15;5.00;;;;;;;12.60;56.75;101145.63;1662532;84;21823;-67
2021/09/29 13:54:15;;;;;;;5.75;4.28;;;;;;;12.59;56.84;101151.36;1661904;84;21500;-67
2021/09/29 13:56:50;;;;;;;8.45;4.55;;;;;;;12.60;56.80;101150.91;1657802;84;21591;-66